createdAt,value
2022-09-23T00:07:31.978Z,23.70
2022-09-23T00:29:15.743Z,20.90
2022-09-23T00:50:59.308Z,24.10
2022-09-23T01:13:03.959Z,23.00
2022-09-23T01:34:55.231Z,24.80
2022-09-23T01:56:43.785Z,24.40
2022-09-23T02:18:30.190Z,26.70
2022-09-23T02:40:23.090Z,21.60
2022-09-23T03:02:21.064Z,27.00
2022-09-23T03:24:07.752Z,22.20
2022-09-23T03:45:56.428Z,25.40
2022-09-23T04:07:40.494Z,27.80
2022-09-23T04:29:24.869Z,28.10
2022-09-23T04:51:10.361Z,27.60
2022-09-23T05:34:41.040Z,29.60
2022-09-23T05:56:25.782Z,27.40
2022-09-23T06:18:08.971Z,25.20
2022-09-23T06:39:54.293Z,23.40
2022-09-23T07:01:40.240Z,23.90
2022-09-23T07:23:23.413Z,20.80
2022-09-23T07:45:09.219Z,22.20
2022-09-23T08:06:54.147Z,21.70
2022-09-23T08:28:37.240Z,14.30
2022-09-23T08:50:22.754Z,11.90
2022-09-23T09:12:15.599Z,7.10
2022-09-23T09:34:05.711Z,7.30
2022-09-23T09:56:04.562Z,8.10
2022-09-23T10:17:51.203Z,6.50
2022-09-23T10:39:52.876Z,3.70
2022-09-23T11:01:42.886Z,4.10
2022-09-23T11:23:46.316Z,4.60
2022-09-23T11:45:34.196Z,5.00
2022-09-23T12:07:22.481Z,3.90
2022-09-23T12:29:07.388Z,5.80
2022-09-23T12:50:53.941Z,2.60
2022-09-23T13:12:41.981Z,4.20
2022-09-23T13:34:30.454Z,5.50
2022-09-23T13:56:15.220Z,3.90
2022-09-23T14:18:04.018Z,4.70
2022-09-23T14:39:54.486Z,4.30
2022-09-23T15:01:40.444Z,5.10
2022-09-23T15:23:44.293Z,6.50
2022-09-23T15:45:31.438Z,4.40
2022-09-23T16:07:16.669Z,6.30
2022-09-23T16:29:00.675Z,7.80
2022-09-23T16:50:44.293Z,7.00
2022-09-23T17:12:33.024Z,9.10
2022-09-23T17:34:18.138Z,10.00
2022-09-23T17:56:04.147Z,10.80
2022-09-23T18:17:47.326Z,12.70
2022-09-23T18:39:30.471Z,14.40
2022-09-23T19:01:14.401Z,19.10
2022-09-23T19:44:40.549Z,19.30
2022-09-23T20:06:24.610Z,25.00
2022-09-23T20:28:07.641Z,23.40
2022-09-23T20:49:50.878Z,24.20
2022-09-23T21:11:34.077Z,25.00
2022-09-23T21:33:17.681Z,24.90
2022-09-23T21:55:00.622Z,29.30
2022-09-23T22:16:43.928Z,30.00
2022-09-23T22:38:27.082Z,26.70
2022-09-23T23:00:12.779Z,23.60
2022-09-23T23:21:55.867Z,26.40
2022-09-23T23:43:39.633Z,24.50
